Terminal Aerodrome Forecast
Issued by NWS Pueblo, CO

Home | Current Version | Previous Version | Text Only | Print | Product List | Glossary On
Versions: 1 2 3 4 5 6 7 8 9 10 11 12 13 14 15 16 17 18 19 20 21 22 23 24 25 26
000
FTUS45 KPUB 192333
TAFALS
TAF
KALS 192333Z 2000/2024 19025G35KT P6SM SCT120 BKN200
     FM200300 18015G28KT P6SM BKN120
     FM200800 17015G28KT P6SM VCSH BKN050
     FM201300 16015G28KT 3SM -SHRASN BR BKN030
     FM201700 20012G22KT P6SM VCSH BKN050
     FM202000 22015G25KT P6SM SCT080 SCT150=

USA.gov is the U.S. government's official web portal to all federal, state and local government web resources and services.